createdAt,value
2018-02-09T00:02:04.412Z,11.68
2018-02-09T00:04:33.413Z,11.28
2018-02-09T00:07:01.972Z,11.32
2018-02-09T00:09:30.528Z,11.43
2018-02-09T00:11:59.995Z,11.25
2018-02-09T00:14:29.325Z,11.10
2018-02-09T00:16:58.683Z,10.78
2018-02-09T00:19:27.300Z,10.34
2018-02-09T00:21:55.867Z,10.53
2018-02-09T00:24:24.492Z,10.46
2018-02-09T00:26:53.848Z,10.32
2018-02-09T00:29:22.404Z,10.51
2018-02-09T00:31:50.959Z,10.27
2018-02-09T00:34:19.568Z,10.34
2018-02-09T00:36:48.128Z,10.44
2018-02-09T00:39:16.676Z,10.75
2018-02-09T00:41:45.267Z,11.00
2018-02-09T00:44:14.592Z,11.02
2018-02-09T00:46:43.145Z,11.76
2018-02-09T00:49:11.743Z,11.66
2018-02-09T00:51:41.396Z,11.69
2018-02-09T00:54:09.948Z,11.38
2018-02-09T00:56:38.545Z,11.49
2018-02-09T00:59:07.095Z,11.75
2018-02-09T01:01:36.415Z,11.79
2018-02-09T01:04:05.876Z,11.95
2018-02-09T01:06:34.411Z,12.03
2018-02-09T01:09:02.963Z,11.98
2018-02-09T01:11:32.492Z,11.86
2018-02-09T01:14:01.040Z,11.97
2018-02-09T01:16:29.612Z,11.81
2018-02-09T01:18:58.596Z,11.68
2018-02-09T01:21:27.147Z,11.90
2018-02-09T01:23:55.699Z,11.47
2018-02-09T01:26:25.162Z,11.43
2018-02-09T01:28:53.719Z,11.76
2018-02-09T01:31:22.267Z,11.93
2018-02-09T01:33:51.752Z,12.14
2018-02-09T01:36:20.322Z,12.08
2018-02-09T01:38:48.877Z,11.93
2018-02-09T01:41:17.593Z,11.85
2018-02-09T01:43:46.144Z,11.50
2018-02-09T01:46:14.713Z,11.44
2018-02-09T01:48:43.325Z,11.11
2018-02-09T01:51:11.876Z,11.14
2018-02-09T01:53:40.423Z,11.30
2018-02-09T01:56:09.112Z,11.43
2018-02-09T01:58:37.672Z,11.25
2018-02-09T02:01:06.224Z,10.97
2018-02-09T02:03:35.048Z,10.96
2018-02-09T02:06:03.628Z,10.82
2018-02-09T02:08:32.184Z,10.65
2018-02-09T02:11:00.803Z,10.65
2018-02-09T02:13:30.119Z,10.67
2018-02-09T02:15:58.686Z,10.51
2018-02-09T02:18:27.284Z,10.38
2018-02-09T02:20:55.841Z,10.32
2018-02-09T02:23:24.392Z,10.28
2018-02-09T02:25:53.216Z,10.36
2018-02-09T02:28:21.766Z,10.32
2018-02-09T02:30:50.313Z,10.01
2018-02-09T02:33:19.276Z,10.34
2018-02-09T02:35:47.827Z,10.14
2018-02-09T02:38:16.372Z,10.11
2018-02-09T02:40:45.080Z,10.32
2018-02-09T02:43:14.400Z,10.19
2018-02-09T02:45:42.961Z,10.22
2018-02-09T02:48:11.798Z,10.17
2018-02-09T02:50:40.355Z,9.89
2018-02-09T02:53:08.904Z,9.31
2018-02-09T02:55:38.288Z,9.38
2018-02-09T02:58:06.841Z,9.45
2018-02-09T03:00:35.384Z,9.38
2018-02-09T03:03:04.096Z,9.50
2018-02-09T03:05:32.643Z,9.36
2018-02-09T03:08:01.956Z,9.22
2018-02-09T03:10:30.716Z,8.79
2018-02-09T03:12:59.297Z,8.90
2018-02-09T03:15:27.841Z,8.58
2018-02-09T03:17:56.657Z,8.60
2018-02-09T03:20:25.208Z,8.72
2018-02-09T03:22:53.767Z,8.78
2018-02-09T03:25:22.648Z,8.90
2018-02-09T03:27:51.959Z,9.07
2018-02-09T03:30:20.517Z,9.19
2018-02-09T03:32:50.940Z,8.98
2018-02-09T03:35:19.491Z,9.08
2018-02-09T03:37:48.099Z,8.90
2018-02-09T03:40:17.071Z,8.91
2018-02-09T03:42:45.615Z,9.01
2018-02-09T03:45:14.160Z,8.79
2018-02-09T03:47:42.880Z,8.57
2018-02-09T03:50:11.441Z,8.48
2018-02-09T03:52:40.765Z,8.30
2018-02-09T03:55:09.456Z,8.06
2018-02-09T03:57:38.004Z,8.48
2018-02-09T04:00:06.556Z,8.21
2018-02-09T04:02:35.244Z,8.26
2018-02-09T04:05:03.878Z,8.37
2018-02-09T04:07:33.213Z,8.42
2018-02-09T04:10:01.809Z,8.25
2018-02-09T04:12:31.120Z,8.31
2018-02-09T04:14:59.671Z,8.26
2018-02-09T04:17:28.362Z,8.27
2018-02-09T04:19:56.916Z,8.28
2018-02-09T04:22:26.220Z,8.39
2018-02-09T04:24:54.922Z,8.55
2018-02-09T04:27:23.470Z,8.76
2018-02-09T04:29:52.797Z,8.74
2018-02-09T04:32:21.611Z,8.76
2018-02-09T04:34:50.160Z,8.90
2018-02-09T04:37:19.463Z,8.75
2018-02-09T04:39:48.206Z,8.77
2018-02-09T04:42:16.765Z,8.64
2018-02-09T04:44:45.311Z,8.65
2018-02-09T04:47:14.764Z,8.56
2018-02-09T04:49:43.321Z,8.50
2018-02-09T04:52:11.881Z,8.64
2018-02-09T04:54:41.339Z,8.48
2018-02-09T04:57:09.899Z,8.56
2018-02-09T04:59:38.493Z,8.51
2018-02-09T05:02:07.084Z,8.45
2018-02-09T05:04:35.622Z,8.49
2018-02-09T05:07:04.940Z,8.53
2018-02-09T05:09:33.547Z,8.33
2018-02-09T05:12:02.093Z,8.34
2018-02-09T05:14:30.636Z,8.42
2018-02-09T05:16:59.706Z,8.13
2018-02-09T05:19:28.585Z,8.30
2018-02-09T05:21:57.140Z,8.32
2018-02-09T05:24:25.740Z,8.23
2018-02-09T05:26:54.297Z,8.41
2018-02-09T05:29:22.868Z,8.39
2018-02-09T05:31:52.231Z,8.50
2018-02-09T05:34:21.575Z,8.57
2018-02-09T05:36:50.128Z,8.63
2018-02-09T05:39:18.964Z,8.68
2018-02-09T05:41:47.542Z,8.64
2018-02-09T05:44:16.115Z,8.74
2018-02-09T05:46:44.906Z,8.57
2018-02-09T05:49:13.452Z,8.80
2018-02-09T05:51:41.996Z,8.84
2018-02-09T05:54:10.695Z,8.92
2018-02-09T05:56:40.019Z,9.05
2018-02-09T05:59:08.845Z,9.17
2018-02-09T06:01:38.223Z,9.16
2018-02-09T06:04:06.773Z,9.29
2018-02-09T06:06:36.992Z,9.39
2018-02-09T06:09:05.644Z,9.76
2018-02-09T06:11:34.196Z,9.93
2018-02-09T06:14:02.744Z,10.14
2018-02-09T06:16:31.440Z,10.30
2018-02-09T06:19:00.752Z,10.50
2018-02-09T06:21:30.069Z,10.10
2018-02-09T06:23:58.956Z,10.76
2018-02-09T06:26:27.511Z,11.10
2018-02-09T06:28:56.835Z,10.80
2018-02-09T06:31:25.439Z,11.22
2018-02-09T06:33:53.999Z,10.98
2018-02-09T06:36:22.579Z,11.60
2018-02-09T06:38:51.411Z,11.37
2018-02-09T06:41:20.731Z,11.63
2018-02-09T06:43:49.289Z,11.80
2018-02-09T06:46:17.889Z,11.98
2018-02-09T06:48:46.457Z,11.98
2018-02-09T06:51:15.045Z,12.63
2018-02-09T06:53:43.640Z,12.86
2018-02-09T06:56:12.201Z,13.18
2018-02-09T06:58:40.756Z,13.12
2018-02-09T07:01:09.457Z,13.24
2018-02-09T07:03:38.057Z,13.38
2018-02-09T07:06:06.604Z,13.20
2018-02-09T07:08:35.295Z,13.22
2018-02-09T07:11:03.849Z,13.66
2018-02-09T07:13:33.173Z,13.13
2018-02-09T07:16:02.005Z,13.47
2018-02-09T07:18:30.553Z,13.36
2018-02-09T07:20:59.097Z,13.76
2018-02-09T07:23:27.704Z,14.07
2018-02-09T07:25:57.019Z,14.06
2018-02-09T07:28:26.359Z,14.36
2018-02-09T07:30:55.720Z,14.39
2018-02-09T07:33:24.268Z,14.50
2018-02-09T07:35:53.481Z,14.86
2018-02-09T07:38:22.944Z,14.93
2018-02-09T07:40:52.265Z,15.62
2018-02-09T07:43:20.828Z,15.37
2018-02-09T07:45:49.436Z,15.19
2018-02-09T07:48:18.004Z,15.29
2018-02-09T07:50:46.576Z,16.18
2018-02-09T07:53:15.327Z,15.48
2018-02-09T07:55:43.872Z,15.52
2018-02-09T07:58:12.432Z,15.75
2018-02-09T08:00:41.037Z,15.47
2018-02-09T08:03:11.124Z,15.85
2018-02-09T08:05:39.681Z,16.29
2018-02-09T08:08:08.393Z,17.12
2018-02-09T08:10:36.956Z,16.72
2018-02-09T08:13:05.520Z,16.14
2018-02-09T08:15:35.071Z,16.04
2018-02-09T08:18:03.624Z,16.11
2018-02-09T08:20:32.185Z,16.53
2018-02-09T08:23:01.657Z,16.58
2018-02-09T08:25:30.226Z,16.88
2018-02-09T08:27:58.861Z,16.70
2018-02-09T08:30:28.416Z,16.41
2018-02-09T08:32:56.968Z,16.18
2018-02-09T08:35:25.536Z,16.10
2018-02-09T08:37:55.759Z,16.06
2018-02-09T08:40:24.320Z,16.05
2018-02-09T08:42:54.385Z,16.21
2018-02-09T08:45:23.156Z,17.07
2018-02-09T08:47:51.709Z,16.91
2018-02-09T08:50:20.302Z,16.89
2018-02-09T08:52:49.668Z,17.11
2018-02-09T08:55:18.229Z,17.27
2018-02-09T08:57:46.790Z,17.22
2018-02-09T09:00:15.821Z,16.53
2018-02-09T09:02:44.372Z,16.79
2018-02-09T09:05:12.930Z,17.24
2018-02-09T09:07:42.597Z,17.69
2018-02-09T09:10:11.185Z,17.93
2018-02-09T09:12:39.732Z,17.69
2018-02-09T09:15:08.341Z,17.74
2018-02-09T09:17:36.892Z,18.12
2018-02-09T09:20:05.479Z,17.53
2018-02-09T09:22:34.244Z,18.10
2018-02-09T09:25:03.580Z,17.46
2018-02-09T09:27:32.136Z,17.59
2018-02-09T09:30:00.968Z,17.61
2018-02-09T09:32:29.516Z,17.96
2018-02-09T09:34:58.064Z,18.78
2018-02-09T09:37:26.928Z,18.50
2018-02-09T09:39:55.476Z,18.49
2018-02-09T09:42:24.039Z,17.89
2018-02-09T09:44:53.796Z,17.91
2018-02-09T09:47:22.344Z,18.43
2018-02-09T09:49:51.709Z,18.62
2018-02-09T09:52:20.315Z,18.20
2018-02-09T09:54:49.627Z,18.47
2018-02-09T09:57:18.939Z,18.48
2018-02-09T09:59:47.550Z,18.76
2018-02-09T10:02:33.900Z,18.53
2018-02-09T10:05:03.460Z,18.73
2018-02-09T10:07:32.019Z,18.73
2018-02-09T10:10:00.572Z,18.94
2018-02-09T10:12:29.940Z,19.20
2018-02-09T10:14:58.501Z,19.38
2018-02-09T10:17:27.053Z,19.33
2018-02-09T10:19:55.806Z,18.94
2018-02-09T10:22:24.372Z,18.76
2018-02-09T10:24:52.933Z,18.12
2018-02-09T10:27:21.734Z,19.30
2018-02-09T10:29:50.282Z,18.65
2018-02-09T10:32:19.597Z,18.39
2018-02-09T10:34:48.369Z,18.32
2018-02-09T10:37:16.920Z,18.16
2018-02-09T10:39:45.480Z,19.27
2018-02-09T10:42:14.096Z,18.77
2018-02-09T10:44:43.424Z,19.48
2018-02-09T10:47:11.981Z,18.96
2018-02-09T10:49:41.358Z,19.03
2018-02-09T10:52:09.909Z,19.08
2018-02-09T10:54:38.464Z,19.07
2018-02-09T10:57:07.827Z,19.30
2018-02-09T10:59:36.396Z,19.34
2018-02-09T11:02:04.981Z,19.36
2018-02-09T11:04:33.575Z,18.83
2018-02-09T11:07:02.120Z,19.12
2018-02-09T11:09:31.564Z,18.74
2018-02-09T11:12:13.834Z,19.12
2018-02-09T11:14:43.287Z,18.50
2018-02-09T11:17:13.019Z,18.87
2018-02-09T11:19:42.487Z,19.04
2018-02-09T11:22:11.061Z,19.31
2018-02-09T11:24:39.620Z,19.14
2018-02-09T11:27:08.237Z,20.08
2018-02-09T11:29:36.792Z,19.60
2018-02-09T11:32:05.346Z,19.03
2018-02-09T11:34:33.980Z,18.55
2018-02-09T11:37:02.533Z,19.39
2018-02-09T11:39:31.160Z,19.67
2018-02-09T11:42:00.037Z,19.01
2018-02-09T11:44:29.526Z,18.63
2018-02-09T11:46:58.082Z,19.30
2018-02-09T11:49:26.977Z,18.56
2018-02-09T11:51:55.557Z,18.87
2018-02-09T11:54:24.107Z,18.66
2018-02-09T11:56:53.569Z,18.59
2018-02-09T11:59:22.124Z,18.54
2018-02-09T12:01:50.752Z,19.05
2018-02-09T12:04:19.369Z,19.47
2018-02-09T12:06:48.724Z,19.15
2018-02-09T12:09:17.270Z,18.59
2018-02-09T12:11:46.002Z,18.77
2018-02-09T12:14:14.585Z,18.58
2018-02-09T12:16:43.164Z,18.46
2018-02-09T12:19:11.960Z,18.80
2018-02-09T12:21:40.544Z,19.14
2018-02-09T12:24:09.107Z,19.00
2018-02-09T12:26:37.709Z,19.08
2018-02-09T12:29:06.265Z,19.41
2018-02-09T12:31:34.829Z,19.33
2018-02-09T12:34:03.868Z,18.50
2018-02-09T12:36:32.428Z,19.26
2018-02-09T12:39:00.996Z,18.42
2018-02-09T12:41:29.765Z,18.49
2018-02-09T12:43:59.078Z,18.62
2018-02-09T12:46:27.650Z,19.24
2018-02-09T12:48:58.129Z,18.91
2018-02-09T12:51:26.711Z,18.90
2018-02-09T12:53:56.041Z,18.81
2018-02-09T12:56:24.665Z,19.36
2018-02-09T12:58:53.241Z,19.33
2018-02-09T13:01:22.556Z,19.21
2018-02-09T13:03:51.479Z,18.90
2018-02-09T13:06:20.060Z,19.37
2018-02-09T13:08:48.615Z,19.97
2018-02-09T13:11:17.529Z,19.70
2018-02-09T13:13:46.165Z,19.02
2018-02-09T13:16:14.720Z,19.52
2018-02-09T13:18:50.855Z,19.24
2018-02-09T13:21:19.424Z,18.70
2018-02-09T13:24:06.204Z,18.90
2018-02-09T13:26:35.515Z,19.26
2018-02-09T13:29:04.100Z,19.16
2018-02-09T13:31:33.175Z,19.12
2018-02-09T13:34:02.575Z,18.53
2018-02-09T13:39:42.637Z,19.05
2018-02-09T13:42:12.260Z,19.02
2018-02-09T13:44:41.577Z,18.95
2018-02-09T13:47:10.130Z,19.01
2018-02-09T13:49:38.841Z,18.60
2018-02-09T13:52:08.156Z,18.80
2018-02-09T13:54:36.719Z,19.04
2018-02-09T13:57:05.465Z,19.32
2018-02-09T13:59:34.015Z,18.88
2018-02-09T14:02:02.573Z,18.99
2018-02-09T14:04:31.216Z,19.01
2018-02-09T14:06:59.804Z,18.85
2018-02-09T14:09:28.412Z,18.69
2018-02-09T14:11:58.180Z,18.54
2018-02-09T14:14:26.767Z,18.52
2018-02-09T14:16:55.344Z,18.90
2018-02-09T14:19:24.320Z,19.45
2018-02-09T14:21:54.590Z,18.30
2018-02-09T14:24:23.147Z,18.47
2018-02-09T14:26:52.072Z,18.61
2018-02-09T14:29:20.634Z,18.78
2018-02-09T14:31:49.210Z,18.80
2018-02-09T14:34:17.819Z,18.27
2018-02-09T14:36:46.385Z,18.45
2018-02-09T14:39:15.717Z,18.24
2018-02-09T14:41:44.321Z,18.48
2018-02-09T14:44:13.653Z,18.27
2018-02-09T14:46:42.208Z,18.04
2018-02-09T14:49:11.594Z,17.93
2018-02-09T14:51:40.165Z,17.80
2018-02-09T14:54:08.733Z,17.51
2018-02-09T14:56:37.535Z,17.29
2018-02-09T14:59:06.925Z,16.82
2018-02-09T15:01:35.485Z,16.95
2018-02-09T15:04:04.099Z,16.99
2018-02-09T15:06:33.425Z,17.22
2018-02-09T15:09:01.995Z,17.18
2018-02-09T15:11:31.569Z,17.26
2018-02-09T15:14:00.154Z,17.07
2018-02-09T15:16:28.731Z,16.78
2018-02-09T15:18:57.434Z,16.61
2018-02-09T15:21:26.048Z,16.58
2018-02-09T15:23:54.608Z,16.47
2018-02-09T15:26:23.265Z,16.23
2018-02-09T15:28:51.908Z,15.98
2018-02-09T15:31:20.476Z,15.67
2018-02-09T15:33:49.204Z,15.44
2018-02-09T15:36:17.780Z,15.48
2018-02-09T15:38:46.364Z,15.30
2018-02-09T15:41:15.245Z,15.30
2018-02-09T15:43:43.809Z,15.06
2018-02-09T15:46:12.370Z,15.14
2018-02-09T15:48:41.204Z,14.80
2018-02-09T15:51:09.833Z,14.75
2018-02-09T15:53:39.296Z,14.70
2018-02-09T15:56:08.901Z,14.55
2018-02-09T15:58:37.532Z,14.57
2018-02-09T16:01:06.098Z,14.44
2018-02-09T16:03:34.822Z,14.41
2018-02-09T16:06:03.435Z,14.35
2018-02-09T16:08:32.776Z,14.29
2018-02-09T16:11:01.552Z,14.05
2018-02-09T16:13:30.109Z,14.06
2018-02-09T16:15:59.445Z,14.03
2018-02-09T16:18:28.272Z,13.84
2018-02-09T16:20:57.647Z,13.51
2018-02-09T16:23:26.200Z,13.61
2018-02-09T16:25:55.677Z,13.42
2018-02-09T16:28:24.250Z,13.20
2018-02-09T16:30:52.858Z,12.97
2018-02-09T16:33:22.237Z,13.18
2018-02-09T16:35:50.814Z,13.17
2018-02-09T16:38:19.393Z,13.22
2018-02-09T16:40:48.004Z,12.93
2018-02-09T16:43:17.341Z,12.67
2018-02-09T16:45:45.925Z,12.51
2018-02-09T16:48:14.702Z,12.57
2018-02-09T16:50:43.297Z,12.55
2018-02-09T16:53:11.885Z,12.56
2018-02-09T16:55:41.397Z,12.60
2018-02-09T16:58:09.961Z,12.44
2018-02-09T17:00:38.543Z,12.46
2018-02-09T17:03:07.270Z,12.55
2018-02-09T17:05:35.849Z,12.45
2018-02-09T17:08:04.426Z,12.57
2018-02-09T17:10:33.249Z,12.53
2018-02-09T17:13:02.608Z,12.60
2018-02-09T17:15:31.185Z,12.62
2018-02-09T17:17:59.817Z,12.61
2018-02-09T17:20:28.389Z,12.61
2018-02-09T17:22:56.964Z,12.55
2018-02-09T17:25:25.592Z,12.49
2018-02-09T17:27:54.156Z,12.33
2018-02-09T17:30:22.736Z,12.25
2018-02-09T17:32:51.868Z,12.28
2018-02-09T17:35:20.433Z,12.17
2018-02-09T17:37:49.760Z,12.10
2018-02-09T17:40:18.386Z,11.97
2018-02-09T17:42:47.716Z,11.70
2018-02-09T17:45:17.061Z,11.64
2018-02-09T17:47:45.787Z,11.82
2018-02-09T17:50:14.358Z,11.13
2018-02-09T17:52:42.933Z,10.94
2018-02-09T17:55:11.557Z,10.76
2018-02-09T17:57:40.913Z,10.83
2018-02-09T18:00:09.476Z,11.03
2018-02-09T18:02:38.090Z,10.51
2018-02-09T18:05:06.690Z,10.34
2018-02-09T18:07:35.270Z,10.49
2018-02-09T18:10:03.949Z,10.49
2018-02-09T18:12:32.525Z,10.69
2018-02-09T18:15:01.080Z,10.92
2018-02-09T18:17:31.449Z,11.04
2018-02-09T18:20:00.837Z,11.11
2018-02-09T18:22:29.410Z,11.21
2018-02-09T18:24:58.124Z,11.24
2018-02-09T18:27:26.699Z,11.30
2018-02-09T18:29:55.961Z,11.06
2018-02-09T18:32:25.258Z,11.15
2018-02-09T18:34:53.816Z,11.10
2018-02-09T18:37:23.897Z,11.16
2018-02-09T18:39:54.600Z,11.04
2018-02-09T18:42:23.207Z,11.15
2018-02-09T18:44:51.768Z,11.31
2018-02-09T18:47:20.386Z,11.37
2018-02-09T18:49:48.961Z,11.19
2018-02-09T18:52:17.536Z,11.36
2018-02-09T18:54:46.156Z,11.35
2018-02-09T18:57:15.493Z,11.40
2018-02-09T18:59:44.100Z,11.48
2018-02-09T19:02:12.709Z,11.56
2018-02-09T19:04:41.281Z,11.70
2018-02-09T19:07:10.518Z,11.78
2018-02-09T19:09:39.954Z,11.36
2018-02-09T19:12:08.518Z,11.60
2018-02-09T19:14:37.077Z,11.66
2018-02-09T19:17:08.495Z,11.47
2018-02-09T19:19:37.054Z,11.73
2018-02-09T19:22:05.612Z,11.61
2018-02-09T19:24:34.318Z,11.45
2018-02-09T19:27:02.897Z,11.13
2018-02-09T19:29:31.470Z,11.02
2018-02-09T19:32:01.119Z,11.16
2018-02-09T19:34:31.276Z,11.06
2018-02-09T19:36:59.840Z,11.07
2018-02-09T19:39:28.605Z,11.09
2018-02-09T19:41:57.229Z,11.02
2018-02-09T19:44:26.565Z,11.00
2018-02-09T19:46:55.187Z,10.93
2018-02-09T19:49:23.820Z,11.03
2018-02-09T19:51:52.396Z,10.93
2018-02-09T19:54:21.836Z,11.11
2018-02-09T19:56:50.419Z,11.37
2018-02-09T19:59:18.984Z,11.38
2018-02-09T20:01:47.709Z,11.30
2018-02-09T20:04:16.689Z,11.23
2018-02-09T20:06:46.207Z,11.37
2018-02-09T20:09:15.771Z,11.51
2018-02-09T20:11:44.351Z,11.37
2018-02-09T20:14:12.920Z,11.54
2018-02-09T20:16:42.430Z,11.33
2018-02-09T20:19:11.019Z,11.31
2018-02-09T20:21:39.602Z,11.45
2018-02-09T20:24:08.377Z,11.08
2018-02-09T20:26:37.709Z,11.24
2018-02-09T20:29:06.273Z,11.39
2018-02-09T20:31:35.748Z,11.40
2018-02-09T20:34:04.308Z,11.36
2018-02-09T20:36:32.897Z,11.36
2018-02-09T20:39:01.541Z,11.43
2018-02-09T20:41:30.898Z,11.50
2018-02-09T20:43:59.465Z,11.35
2018-02-09T20:46:28.868Z,11.19
2018-02-09T20:48:57.533Z,11.15
2018-02-09T20:51:26.097Z,10.95
2018-02-09T20:53:55.631Z,10.75
2018-02-09T20:56:24.216Z,10.76
2018-02-09T20:58:52.813Z,10.87
2018-02-09T21:01:21.603Z,11.01
2018-02-09T21:03:50.167Z,11.15
2018-02-09T21:06:18.730Z,11.19
2018-02-09T21:08:47.336Z,11.07
2018-02-09T21:11:15.898Z,10.79
2018-02-09T21:13:44.450Z,10.91
2018-02-09T21:16:14.118Z,10.87
2018-02-09T21:18:42.676Z,10.93
2018-02-09T21:21:11.232Z,10.97
2018-02-09T21:23:40.592Z,10.94
2018-02-09T21:26:09.911Z,10.90
2018-02-09T21:28:39.233Z,11.01
2018-02-09T21:31:08.712Z,11.05
2018-02-09T21:33:37.278Z,10.83
2018-02-09T21:36:06.587Z,10.66
2018-02-09T21:38:35.309Z,10.62
2018-02-09T21:41:03.865Z,10.80
2018-02-09T21:43:33.205Z,10.83
2018-02-09T21:46:01.813Z,11.04
2018-02-09T21:48:30.394Z,11.03
2018-02-09T21:50:59.031Z,11.13
2018-02-09T21:53:28.809Z,11.17
2018-02-09T21:55:57.371Z,10.97
2018-02-09T21:58:25.920Z,10.90
2018-02-09T22:00:55.436Z,10.95
2018-02-09T22:03:23.992Z,11.05
2018-02-09T22:05:52.566Z,11.12
2018-02-09T22:08:22.173Z,10.64
2018-02-09T22:10:50.758Z,10.86
2018-02-09T22:13:19.333Z,10.85
2018-02-09T22:15:48.208Z,10.68
2018-02-09T22:18:16.844Z,10.65
2018-02-09T22:20:45.421Z,10.86
2018-02-09T22:23:15.191Z,10.80
2018-02-09T22:25:43.753Z,10.66
2018-02-09T22:28:12.320Z,10.68
2018-02-09T22:30:40.972Z,10.60
2018-02-09T22:33:10.305Z,10.56
2018-02-09T22:35:38.863Z,10.56
2018-02-09T22:38:08.425Z,10.56
2018-02-09T22:40:36.978Z,10.41
2018-02-09T22:43:05.532Z,10.52
2018-02-09T22:45:34.934Z,10.58
2018-02-09T22:48:04.286Z,10.74
2018-02-09T22:50:32.843Z,10.66
2018-02-09T22:53:01.545Z,10.57
2018-02-09T22:55:30.108Z,10.58
2018-02-09T22:57:58.700Z,10.44
2018-02-09T23:00:27.626Z,10.49
2018-02-09T23:02:56.964Z,10.41
2018-02-09T23:05:25.531Z,10.19
2018-02-09T23:07:54.360Z,10.12
2018-02-09T23:10:22.924Z,10.06
2018-02-09T23:12:51.482Z,9.70
2018-02-09T23:15:20.308Z,9.45
2018-02-09T23:17:48.869Z,9.49
2018-02-09T23:20:17.436Z,9.36
2018-02-09T23:22:46.991Z,9.29
2018-02-09T23:25:15.586Z,9.22
2018-02-09T23:27:44.157Z,8.92
2018-02-09T23:30:19.913Z,8.78
2018-02-09T23:32:48.513Z,8.81
2018-02-09T23:35:17.084Z,8.78
2018-02-09T23:37:45.866Z,8.73
2018-02-09T23:40:14.424Z,8.81
2018-02-09T23:42:42.980Z,8.95
2018-02-09T23:45:12.353Z,9.24
2018-02-09T23:47:40.906Z,9.19
2018-02-09T23:50:10.225Z,9.16
2018-02-09T23:52:38.973Z,8.95
2018-02-09T23:55:07.528Z,8.84
2018-02-09T23:57:36.848Z,8.96
